Time;durP1;ratioP1;P1;durP2;ratioP2;P2;SDS_P1;SDS_P2;PMS_P1;PMS_P2;Temp;Humidity;BMP_temperature;BMP_pressure;BME280_temperature;BME280_humidity;BME280_pressure;Samples;Min_cycle;Max_cycle;Signal;HPM_P1;HPM_P2
2022/01/13 00:00:20;;;;;;;74.53;23.63;;;-3.50;99.90;;;;;;4342383;28;661299;-66
2022/01/13 00:03:07;;;;;;;82.18;26.00;;;-3.50;99.90;;;;;;4324394;28;660904;-68
2022/01/13 00:05:56;;;;;;;77.93;25.40;;;-3.50;99.90;;;;;;4342481;28;660977;-66
2022/01/13 00:08:44;;;;;;;74.50;24.67;;;-3.40;99.90;;;;;;4325018;28;662344;-67
2022/01/13 00:11:31;;;;;;;77.03;24.37;;;-3.40;99.90;;;;;;4334919;28;660388;-66
2022/01/13 00:14:38;;;;;;;66.23;20.57;;;-3.40;99.90;;;;;;4322033;28;661990;-67
2022/01/13 00:17:34;;;;;;;54.60;19.87;;;-3.40;99.90;;;;;;4319520;28;660869;-66
2022/01/13 00:20:33;;;;;;;71.75;24.58;;;-3.40;99.90;;;;;;4317362;28;661758;-66
2022/01/13 00:23:43;;;;;;;69.37;23.43;;;-3.40;99.90;;;;;;4319631;28;660568;-67
2022/01/13 00:26:33;;;;;;;88.13;24.25;;;-3.40;99.90;;;;;;4319588;28;661165;-67
2022/01/13 00:29:26;;;;;;;75.10;23.33;;;-3.50;99.90;;;;;;4384939;28;661939;-67
2022/01/13 00:32:14;;;;;;;79.97;26.13;;;-3.50;99.90;;;;;;4362984;28;661147;-67
2022/01/13 00:35:02;;;;;;;74.93;24.07;;;-3.40;99.90;;;;;;4401719;28;661353;-67
2022/01/13 00:37:50;;;;;;;69.07;23.17;;;-3.40;99.90;;;;;;4414609;28;661991;-67
2022/01/13 00:40:39;;;;;;;78.00;24.77;;;-3.50;99.90;;;;;;4395095;28;661392;-67
2022/01/13 00:43:26;;;;;;;78.53;27.17;;;-3.50;99.90;;;;;;4412101;28;660746;-67
2022/01/13 00:46:20;;;;;;;75.60;23.70;;;-3.50;99.90;;;;;;4384571;28;661359;-66
2022/01/13 00:49:08;;;;;;;86.43;27.60;;;-3.50;99.90;;;;;;4391102;28;660712;-67
2022/01/13 00:51:56;;;;;;;83.90;27.03;;;-3.40;99.90;;;;;;4410855;28;661568;-67
2022/01/13 00:54:43;;;;;;;77.07;25.63;;;-3.40;99.90;;;;;;4390744;28;660976;-67
2022/01/13 00:57:33;;;;;;;87.97;28.20;;;-3.40;99.90;;;;;;4408257;28;660415;-66
2022/01/13 01:00:20;;;;;;;97.27;29.43;;;-3.40;99.90;;;;;;4385768;28;661217;-67
2022/01/13 01:03:08;;;;;;;88.93;30.45;;;-3.40;99.90;;;;;;4389640;28;660668;-67
2022/01/13 01:05:56;;;;;;;83.33;28.03;;;-3.40;99.90;;;;;;4409320;28;662108;-67
2022/01/13 01:08:44;;;;;;;94.77;30.20;;;-3.40;99.90;;;;;;4392889;28;660573;-67
2022/01/13 01:11:31;;;;;;;89.60;31.53;;;-3.40;99.90;;;;;;4395634;28;660845;-67
2022/01/13 01:14:20;;;;;;;86.47;31.03;;;-3.30;99.90;;;;;;4390541;28;660739;-67
2022/01/13 01:17:08;;;;;;;94.60;29.20;;;-3.30;99.90;;;;;;4390352;28;660905;-67
2022/01/13 01:19:55;;;;;;;103.47;33.43;;;-3.30;99.90;;;;;;4410221;28;661774;-67
2022/01/13 01:22:57;;;;;;;95.53;28.73;;;-3.30;99.90;;;;;;4390669;28;661678;-67
2022/01/13 01:25:57;;;;;;;113.57;33.83;;;-3.30;99.90;;;;;;4364678;28;662132;-67
2022/01/13 01:28:49;;;;;;;102.38;33.03;;;-3.30;99.90;;;;;;4365195;28;663158;-67
2022/01/13 01:31:39;;;;;;;107.00;33.15;;;-3.30;99.90;;;;;;4391293;28;662176;-67
2022/01/13 01:34:41;;;;;;;96.17;33.00;;;-3.30;99.90;;;;;;4376299;28;662118;-68
2022/01/13 01:37:30;;;;;;;108.83;35.20;;;-3.20;99.90;;;;;;4367448;28;661209;-67
2022/01/13 01:40:18;;;;;;;115.80;35.27;;;-3.30;99.90;;;;;;4389236;28;661630;-68
2022/01/13 01:43:05;;;;;;;118.83;31.03;;;-3.20;99.90;;;;;;4411544;28;662541;-67
2022/01/13 01:45:54;;;;;;;108.50;34.03;;;-3.20;99.90;;;;;;4387704;28;661599;-67
2022/01/13 01:48:44;;;;;;;96.88;32.40;;;-3.20;99.90;;;;;;4397066;28;662867;-68
2022/01/13 01:51:31;;;;;;;98.20;31.23;;;-3.30;99.90;;;;;;4410747;28;661003;-67
2022/01/13 01:54:19;;;;;;;122.17;35.33;;;-3.20;99.90;;;;;;4384186;28;662798;-67
2022/01/13 01:57:07;;;;;;;114.13;36.57;;;-3.30;99.90;;;;;;4408493;28;661890;-67
2022/01/13 01:59:55;;;;;;;137.02;38.67;;;-3.30;99.90;;;;;;4393224;28;662417;-67
2022/01/13 02:02:43;;;;;;;114.97;33.93;;;-3.30;99.90;;;;;;4390936;28;662124;-67
2022/01/13 02:05:32;;;;;;;122.27;36.63;;;-3.30;99.90;;;;;;4410474;28;662513;-67
2022/01/13 02:08:20;;;;;;;126.03;39.73;;;-3.20;99.90;;;;;;4385253;28;662119;-67
2022/01/13 02:11:07;;;;;;;136.60;40.03;;;-3.10;99.90;;;;;;4378228;28;661460;-68
2022/01/13 02:13:59;;;;;;;101.03;31.60;;;-3.10;99.90;;;;;;4404565;28;661919;-67
2022/01/13 02:16:50;;;;;;;123.93;37.47;;;-3.10;99.90;;;;;;4387218;28;662026;-67
2022/01/13 02:19:39;;;;;;;108.67;30.67;;;-3.10;99.90;;;;;;4368607;28;663057;-68
2022/01/13 02:22:28;;;;;;;124.10;40.78;;;-3.10;99.90;;;;;;4408992;28;662270;-67
2022/01/13 02:25:16;;;;;;;136.10;41.05;;;-3.10;99.90;;;;;;4383195;28;662443;-67
2022/01/13 02:28:03;;;;;;;96.97;29.47;;;-3.10;99.90;;;;;;4389262;28;661592;-67
2022/01/13 02:30:51;;;;;;;135.53;40.43;;;-3.10;99.90;;;;;;4416200;28;661252;-67
2022/01/13 02:33:39;;;;;;;107.00;34.88;;;-3.00;99.90;;;;;;4389045;28;662144;-67
2022/01/13 02:36:27;;;;;;;107.00;30.53;;;-2.90;99.90;;;;;;4409436;28;662458;-68
2022/01/13 02:39:16;;;;;;;131.32;39.08;;;-2.90;99.90;;;;;;4388392;28;661903;-67
2022/01/13 02:42:11;;;;;;;99.17;30.50;;;-2.90;99.90;;;;;;4390533;28;661615;-67
2022/01/13 02:45:03;;;;;;;113.90;31.00;;;-2.90;99.90;;;;;;4363573;28;662222;-67
2022/01/13 02:48:13;;;;;;;97.63;32.77;;;-2.90;99.90;;;;;;4385633;28;661872;-67
2022/01/13 02:51:01;;;;;;;98.07;28.70;;;-2.90;99.90;;;;;;4387286;28;662089;-67
2022/01/13 02:53:49;;;;;;;122.03;34.23;;;-2.80;99.90;;;;;;4391615;28;661119;-67
2022/01/13 02:56:37;;;;;;;74.40;24.80;;;-2.80;99.90;;;;;;4409616;28;661571;-67
2022/01/13 02:59:25;;;;;;;107.87;32.73;;;-2.80;99.90;;;;;;4392537;28;661241;-67
2022/01/13 03:02:12;;;;;;;115.43;35.50;;;-2.80;99.90;;;;;;4391999;28;662619;-68
2022/01/13 03:05:00;;;;;;;110.77;27.97;;;-2.70;99.90;;;;;;4410584;28;661977;-67
2022/01/13 03:07:48;;;;;;;112.57;36.97;;;-2.70;99.90;;;;;;4391537;28;661869;-67
2022/01/13 03:10:35;;;;;;;140.70;36.27;;;-2.80;99.90;;;;;;4397272;28;663202;-68
2022/01/13 03:13:28;;;;;;;123.93;38.03;;;-2.70;99.90;;;;;;4387213;28;661891;-69
2022/01/13 03:16:15;;;;;;;115.03;37.37;;;-2.70;99.90;;;;;;4386831;28;662260;-68
2022/01/13 03:19:03;;;;;;;100.20;29.43;;;-2.70;99.90;;;;;;4388949;28;662047;-67
2022/01/13 03:21:51;;;;;;;99.07;32.70;;;-2.70;99.90;;;;;;4409878;28;662135;-67
2022/01/13 03:24:38;;;;;;;127.13;36.73;;;-2.60;99.90;;;;;;4393142;28;661563;-69
2022/01/13 03:27:34;;;;;;;126.07;34.20;;;-2.60;99.90;;;;;;4408948;28;661578;-67
2022/01/13 03:30:22;;;;;;;140.97;37.80;;;-2.60;99.90;;;;;;4386478;28;662071;-68
2022/01/13 03:33:10;;;;;;;165.73;35.03;;;-2.60;99.90;;;;;;4386155;28;663011;-67
2022/01/13 03:35:58;;;;;;;124.80;36.70;;;-2.60;99.90;;;;;;4388923;28;662139;-68
2022/01/13 03:38:45;;;;;;;112.90;33.10;;;-2.60;99.90;;;;;;4415702;28;662663;-68
2022/01/13 03:41:33;;;;;;;118.17;34.67;;;-2.50;99.90;;;;;;4392821;28;661568;-65
2022/01/13 03:44:28;;;;;;;118.33;33.90;;;-2.50;99.90;;;;;;4409197;28;663111;-68
2022/01/13 03:47:17;;;;;;;96.15;28.60;;;-2.50;99.90;;;;;;4387351;28;661474;-68
2022/01/13 03:50:05;;;;;;;122.00;36.83;;;-2.50;99.90;;;;;;4393195;28;662446;-68
2022/01/13 03:53:26;;;;;;;104.60;35.47;;;-2.50;99.90;;;;;;4393221;28;662257;-68
2022/01/13 03:56:55;;;;;;;109.80;34.87;;;-2.50;99.90;;;;;;4363337;28;662340;-67
2022/01/13 04:00:46;;;;;;;112.22;34.10;;;-2.40;99.90;;;;;;4368628;28;662824;-69
2022/01/13 04:03:35;;;;;;;91.38;30.05;;;-2.40;99.90;;;;;;4366278;28;663019;-68
2022/01/13 04:06:40;;;;;;;117.20;34.87;;;-2.40;99.90;;;;;;4393959;28;660773;-68
2022/01/13 04:10:13;;;;;;;99.53;33.33;;;-2.40;99.90;;;;;;4360827;28;662276;-69
2022/01/13 04:13:00;;;;;;;105.03;34.90;;;-2.30;99.90;;;;;;4311497;28;661515;-68
2022/01/13 04:15:48;;;;;;;115.57;34.63;;;-2.30;99.90;;;;;;4317295;28;661635;-68
2022/01/13 04:18:37;;;;;;;129.88;33.42;;;-2.30;99.90;;;;;;4334788;28;663293;-68
2022/01/13 04:21:24;;;;;;;108.80;33.60;;;-2.30;99.90;;;;;;4312867;28;662496;-68
2022/01/13 04:24:12;;;;;;;132.87;35.57;;;-2.30;99.90;;;;;;4337719;28;660828;-68
2022/01/13 04:26:59;;;;;;;120.03;35.53;;;-2.30;99.90;;;;;;4317381;28;662234;-68
2022/01/13 04:29:49;;;;;;;101.23;33.43;;;-2.20;99.90;;;;;;4331932;28;661499;-68
2022/01/13 04:32:36;;;;;;;108.93;33.33;;;-2.20;99.90;;;;;;4335023;28;661662;-68
2022/01/13 04:35:25;;;;;;;92.40;28.20;;;-2.20;99.90;;;;;;4311865;28;663961;-68
2022/01/13 04:38:13;;;;;;;118.03;35.27;;;-2.10;99.90;;;;;;4320149;28;660826;-68
2022/01/13 04:41:02;;;;;;;88.93;29.47;;;-2.10;99.90;;;;;;4333720;28;662081;-67
2022/01/13 04:43:49;;;;;;;125.57;37.37;;;-2.10;99.90;;;;;;4318578;28;660995;-68
2022/01/13 04:46:37;;;;;;;94.80;30.53;;;-2.10;99.90;;;;;;4332815;28;661739;-69
2022/01/13 04:49:25;;;;;;;111.80;32.30;;;-2.10;99.90;;;;;;4336650;28;661583;-66
2022/01/13 04:52:14;;;;;;;114.60;34.43;;;-2.10;99.90;;;;;;4316400;28;662218;-69
2022/01/13 04:55:09;;;;;;;123.60;36.03;;;-2.00;99.90;;;;;;4410196;28;661666;-66
2022/01/13 04:57:58;;;;;;;126.23;36.73;;;-2.00;99.90;;;;;;4387525;28;661787;-68
2022/01/13 05:00:54;;;;;;;141.85;35.38;;;-2.00;99.90;;;;;;4388506;28;662483;-65
2022/01/13 05:03:45;;;;;;;129.27;35.33;;;-1.90;99.90;;;;;;4389328;28;662092;-68
2022/01/13 05:06:35;;;;;;;107.90;33.00;;;-1.90;99.90;;;;;;4392940;28;661499;-69
2022/01/13 05:09:28;;;;;;;225.77;33.47;;;-1.90;99.90;;;;;;4388235;28;661810;-68
2022/01/13 05:12:17;;;;;;;116.30;31.20;;;-1.80;99.90;;;;;;4384400;28;663105;-67
2022/01/13 05:15:09;;;;;;;180.40;35.03;;;-1.80;99.90;;;;;;4386758;28;662247;-66
2022/01/13 05:18:13;;;;;;;94.40;32.20;;;-1.80;99.90;;;;;;4387283;28;661780;-66
2022/01/13 05:21:05;;;;;;;113.33;31.57;;;-1.80;99.90;;;;;;4388107;28;660578;-68
2022/01/13 05:23:54;;;;;;;128.83;34.80;;;-1.80;99.90;;;;;;4388602;28;661897;-67
2022/01/13 05:26:45;;;;;;;125.70;26.75;;;-1.80;99.90;;;;;;4407770;28;661395;-68
2022/01/13 05:29:32;;;;;;;193.05;34.50;;;-1.70;99.90;;;;;;4366657;28;661943;-66
2022/01/13 05:32:20;;;;;;;82.97;24.07;;;-1.70;99.90;;;;;;4413943;28;664011;-66
2022/01/13 05:35:08;;;;;;;200.40;30.67;;;-1.70;99.90;;;;;;4390720;28;660724;-67
2022/01/13 05:37:56;;;;;;;94.07;25.37;;;-1.60;99.90;;;;;;4408689;28;661663;-66
2022/01/13 05:40:43;;;;;;;158.95;34.78;;;-1.60;99.90;;;;;;4393041;28;660892;-68
2022/01/13 05:43:34;;;;;;;108.60;27.53;;;-1.70;99.90;;;;;;4410339;28;662146;-67
2022/01/13 05:46:23;;;;;;;177.17;37.60;;;-1.60;99.90;;;;;;4385587;28;661610;-67
2022/01/13 05:49:12;;;;;;;113.23;32.17;;;-1.60;99.90;;;;;;4390675;28;661943;-66
2022/01/13 05:52:02;;;;;;;124.47;31.70;;;-1.60;99.90;;;;;;4386219;28;662624;-68
2022/01/13 05:54:50;;;;;;;101.93;23.17;;;-1.60;99.90;;;;;;4389063;28;662266;-66
2022/01/13 05:57:38;;;;;;;143.43;33.43;;;-1.60;99.90;;;;;;4390063;28;661540;-66
2022/01/13 06:00:30;;;;;;;148.90;31.53;;;-1.60;99.90;;;;;;4408912;28;661356;-66
2022/01/13 06:03:19;;;;;;;116.97;31.25;;;-1.60;99.90;;;;;;4368414;28;661527;-66
2022/01/13 06:06:09;;;;;;;112.80;35.23;;;-1.50;99.90;;;;;;4400766;28;661851;-67
2022/01/13 06:09:00;;;;;;;135.17;29.80;;;-1.50;99.90;;;;;;4408842;28;661667;-69
2022/01/13 06:11:56;;;;;;;118.00;27.57;;;-1.50;99.90;;;;;;4391620;28;661597;-69
2022/01/13 06:14:44;;;;;;;101.60;28.23;;;-1.50;99.90;;;;;;4363752;28;661864;-69
2022/01/13 06:17:33;;;;;;;99.17;32.43;;;-1.50;99.90;;;;;;4413941;28;661504;-68
2022/01/13 06:20:23;;;;;;;113.73;26.87;;;-1.50;99.90;;;;;;4385433;28;661363;-69
2022/01/13 06:23:15;;;;;;;175.40;30.97;;;-1.50;99.90;;;;;;4386621;28;662130;-68
2022/01/13 06:26:10;;;;;;;128.13;37.17;;;-1.50;99.90;;;;;;4370202;28;661911;-70
2022/01/13 06:29:00;;;;;;;114.03;30.40;;;-1.50;99.90;;;;;;4360924;28;662154;-69
2022/01/13 06:31:48;;;;;;;114.90;36.47;;;-1.50;99.90;;;;;;4391005;28;662019;-69
2022/01/13 06:34:41;;;;;;;104.50;32.93;;;-1.50;99.90;;;;;;4407764;28;662231;-68
2022/01/13 06:37:32;;;;;;;99.72;32.17;;;-1.40;99.90;;;;;;4361028;28;662918;-69
2022/01/13 06:40:20;;;;;;;90.07;29.47;;;-1.50;99.90;;;;;;4398854;28;661142;-68
2022/01/13 06:43:08;;;;;;;120.63;37.83;;;-1.40;99.90;;;;;;4368768;28;661189;-77
2022/01/13 06:45:55;;;;;;;103.90;32.07;;;-1.40;99.90;;;;;;4386666;28;663089;-76
2022/01/13 06:48:43;;;;;;;120.90;39.07;;;-1.40;99.90;;;;;;4371977;28;661996;-77
2022/01/13 06:51:32;;;;;;;119.17;36.23;;;-1.40;99.90;;;;;;4391378;28;661965;-77
2022/01/13 06:54:19;;;;;;;116.23;35.23;;;-1.50;99.90;;;;;;4371266;28;662315;-77
2022/01/13 06:57:07;;;;;;;95.93;30.65;;;-1.40;99.90;;;;;;4371522;28;661814;-77
2022/01/13 06:59:55;;;;;;;75.67;24.87;;;-1.40;99.90;;;;;;4388609;28;661100;-77
2022/01/13 07:02:43;;;;;;;86.53;27.37;;;-1.40;99.90;;;;;;4370608;28;660611;-78
2022/01/13 07:05:58;;;;;;;81.30;27.40;;;-1.40;99.90;;;;;;4393248;28;662206;-77
2022/01/13 07:09:21;;;;;;;83.53;29.10;;;-1.30;99.90;;;;;;4364123;28;660925;-76
2022/01/13 07:12:10;;;;;;;91.53;32.40;;;-1.30;99.90;;;;;;4347948;28;661220;-76
2022/01/13 07:14:57;;;;;;;93.97;32.43;;;-1.30;99.90;;;;;;4377119;28;661340;-75
2022/01/13 07:17:45;;;;;;;92.07;31.40;;;-1.30;99.90;;;;;;4401714;28;660769;-75
2022/01/13 07:20:33;;;;;;;71.57;25.77;;;-1.30;99.90;;;;;;4373338;28;661478;-76
2022/01/13 07:23:20;;;;;;;89.70;31.37;;;-1.30;99.90;;;;;;4398788;28;661594;-75
2022/01/13 07:26:09;;;;;;;52.13;19.17;;;-1.30;99.90;;;;;;4375495;28;660991;-75
2022/01/13 07:28:57;;;;;;;91.57;31.53;;;-1.30;99.90;;;;;;4387620;28;660528;-75
2022/01/13 07:31:46;;;;;;;64.60;21.30;;;-1.20;99.90;;;;;;4395789;28;661372;-75
2022/01/13 07:34:34;;;;;;;70.70;24.57;;;-1.20;99.90;;;;;;4370293;28;662150;-75
2022/01/13 07:37:24;;;;;;;82.27;29.70;;;-1.20;99.90;;;;;;4396460;28;660652;-75
2022/01/13 07:40:15;;;;;;;72.30;26.43;;;-1.30;99.90;;;;;;4383355;28;661369;-79
2022/01/13 07:43:04;;;;;;;71.37;23.10;;;-1.20;99.90;;;;;;4362881;28;660924;-77
2022/01/13 07:45:52;;;;;;;56.38;19.77;;;-1.20;99.90;;;;;;4393051;28;660713;-77
2022/01/13 07:48:39;;;;;;;65.20;24.07;;;-1.20;99.90;;;;;;4366910;28;661570;-77
2022/01/13 07:51:28;;;;;;;67.37;21.97;;;-1.20;99.90;;;;;;4400735;28;660969;-76
2022/01/13 07:54:16;;;;;;;77.93;28.67;;;-1.20;99.90;;;;;;4383505;28;661282;-76
2022/01/13 07:57:04;;;;;;;75.07;28.23;;;-1.10;99.90;;;;;;4374906;28;660657;-75
2022/01/13 07:59:53;;;;;;;46.93;17.27;;;-1.10;99.90;;;;;;4402386;28;660633;-76
2022/01/13 08:02:41;;;;;;;72.27;26.83;;;-1.10;99.90;;;;;;4368993;28;661314;-76
2022/01/13 08:05:29;;;;;;;72.20;25.13;;;-1.00;99.90;;;;;;4365828;28;660802;-71
2022/01/13 08:08:16;;;;;;;78.00;28.73;;;-1.00;99.90;;;;;;4393172;28;660590;-77
2022/01/13 08:11:04;;;;;;;64.60;23.77;;;-1.00;99.90;;;;;;4353536;28;660787;-76
2022/01/13 08:13:52;;;;;;;73.07;25.03;;;-0.90;99.90;;;;;;4384738;28;660437;-76
2022/01/13 08:16:44;;;;;;;63.27;23.23;;;-0.90;99.90;;;;;;4387963;28;661379;-76
2022/01/13 08:19:45;;;;;;;45.30;16.97;;;-0.90;99.90;;;;;;4369151;28;660526;-79
2022/01/13 08:22:33;;;;;;;47.43;15.03;;;-0.80;99.90;;;;;;4363237;28;660391;-75
2022/01/13 08:25:21;;;;;;;56.97;21.60;;;-0.80;99.90;;;;;;4406044;28;660995;-79
2022/01/13 08:28:10;;;;;;;88.10;24.70;;;-0.70;99.90;;;;;;4372631;28;661328;-76
2022/01/13 08:30:58;;;;;;;55.57;22.90;;;-0.70;99.90;;;;;;4376370;28;660903;-77
2022/01/13 08:33:47;;;;;;;54.07;18.80;;;-0.60;99.90;;;;;;4392890;28;661657;-76
2022/01/13 08:36:34;;;;;;;61.05;22.35;;;-0.60;99.90;;;;;;4373559;28;661320;-76
2022/01/13 08:39:22;;;;;;;55.67;21.77;;;-0.50;99.90;;;;;;4385932;28;661817;-78
2022/01/13 08:42:10;;;;;;;66.87;22.80;;;-0.50;99.90;;;;;;4394414;28;661577;-75
2022/01/13 08:44:57;;;;;;;59.20;22.23;;;-0.40;99.90;;;;;;4372304;28;660810;-76
2022/01/13 08:47:45;;;;;;;58.50;23.07;;;-0.50;99.90;;;;;;4386961;28;660810;-75
2022/01/13 08:50:34;;;;;;;68.57;24.53;;;-0.40;99.90;;;;;;4367067;28;661146;-76
2022/01/13 08:53:22;;;;;;;69.60;23.30;;;-0.40;99.90;;;;;;4389107;28;660453;-76
2022/01/13 08:56:09;;;;;;;53.40;19.13;;;-0.40;99.90;;;;;;4371050;28;661301;-78
2022/01/13 08:58:57;;;;;;;69.90;23.60;;;-0.30;99.90;;;;;;4386112;28;660774;-77
2022/01/13 09:01:45;;;;;;;65.10;23.10;;;-0.30;99.90;;;;;;4390868;28;661372;-77
2022/01/13 09:04:32;;;;;;;64.30;26.00;;;-0.20;99.90;;;;;;4366602;28;660652;-76
2022/01/13 09:07:21;;;;;;;63.60;24.53;;;-0.20;99.90;;;;;;4390823;28;661414;-76
2022/01/13 09:10:10;;;;;;;58.60;23.00;;;-0.20;99.90;;;;;;4355563;28;662418;-76
2022/01/13 09:12:58;;;;;;;36.72;12.75;;;-0.10;99.90;;;;;;4367886;28;660662;-76
2022/01/13 09:15:49;;;;;;;64.23;23.00;;;-0.20;99.90;;;;;;4386927;28;661839;-77
2022/01/13 09:18:58;;;;;;;52.87;21.33;;;-0.10;99.90;;;;;;4367795;28;660707;-79
2022/01/13 09:21:46;;;;;;;56.87;19.47;;;-0.20;99.90;;;;;;4362621;28;660724;-77
2022/01/13 09:24:35;;;;;;;63.80;23.90;;;-0.20;99.90;;;;;;4366451;28;661793;-77
2022/01/13 09:27:23;;;;;;;52.70;18.30;;;-0.20;99.90;;;;;;4370606;28;660811;-75
2022/01/13 09:30:11;;;;;;;59.70;22.40;;;-0.10;99.90;;;;;;4385491;28;661633;-78
2022/01/13 09:32:59;;;;;;;57.63;21.83;;;-0.20;99.90;;;;;;4364432;28;662384;-75
2022/01/13 09:35:47;;;;;;;54.10;18.70;;;-0.20;99.90;;;;;;4393319;28;660433;-73
2022/01/13 09:38:35;;;;;;;69.27;23.33;;;-0.10;99.90;;;;;;4387036;28;662177;-78
2022/01/13 09:41:25;;;;;;;60.70;22.50;;;-0.10;99.90;;;;;;4369994;28;660891;-77
2022/01/13 09:44:14;;;;;;;66.97;24.38;;;-0.20;99.90;;;;;;4381066;28;661245;-77
2022/01/13 09:47:03;;;;;;;54.53;22.27;;;-0.10;99.90;;;;;;4409155;28;660715;-77
2022/01/13 09:49:51;;;;;;;71.27;23.37;;;0.10;99.90;;;;;;4380515;28;660938;-77
2022/01/13 09:52:39;;;;;;;41.53;15.33;;;0.20;99.90;;;;;;4386267;28;659737;-76
2022/01/13 09:55:26;;;;;;;47.75;18.85;;;0.30;99.90;;;;;;4411287;28;659083;-77
2022/01/13 09:58:16;;;;;;;51.50;18.63;;;0.20;99.90;;;;;;4379642;28;660600;-77
2022/01/13 10:01:03;;;;;;;58.07;19.63;;;0.20;99.90;;;;;;4384931;28;659959;-77
2022/01/13 10:03:51;;;;;;;56.53;21.63;;;0.20;99.90;;;;;;4403578;28;660068;-76
2022/01/13 10:06:43;;;;;;;50.73;19.63;;;0.20;99.90;;;;;;4383984;28;659703;-73
2022/01/13 10:09:38;;;;;;;48.53;20.57;;;0.20;99.90;;;;;;4373021;28;660318;-76
2022/01/13 10:12:27;;;;;;;49.97;20.13;;;0.30;99.90;;;;;;4383132;28;660641;-77
2022/01/13 10:18:31;;;;;;;42.97;15.80;;;0.40;99.90;;;;;;4367413;28;659898;-77
2022/01/13 10:21:20;;;;;;;39.93;16.03;;;0.50;99.90;;;;;;4384245;28;659242;-78
2022/01/13 10:24:09;;;;;;;37.58;15.95;;;0.50;99.90;;;;;;4387625;28;659768;-75
2022/01/13 10:27:00;;;;;;;50.93;15.33;;;0.50;99.90;;;;;;4400926;28;659625;-77
2022/01/13 10:29:49;;;;;;;42.97;16.47;;;0.50;99.90;;;;;;4382440;28;659953;-78
2022/01/13 10:32:39;;;;;;;47.17;18.40;;;0.50;99.90;;;;;;4394035;28;659719;-77
2022/01/13 10:35:27;;;;;;;46.67;17.13;;;0.60;99.90;;;;;;4392024;28;660160;-77
2022/01/13 10:38:16;;;;;;;33.23;12.30;;;0.70;99.90;;;;;;4406919;28;660561;-75
2022/01/13 10:41:04;;;;;;;46.33;17.57;;;0.70;99.90;;;;;;4382835;28;659571;-76
2022/01/13 10:44:12;;;;;;;44.63;16.43;;;0.70;99.90;;;;;;4406001;28;659875;-76
2022/01/13 10:47:01;;;;;;;28.17;12.23;;;0.60;99.90;;;;;;4386396;28;660308;-73
2022/01/13 10:49:50;;;;;;;42.93;17.80;;;0.60;99.90;;;;;;4390895;28;659988;-76
2022/01/13 10:52:38;;;;;;;28.93;8.13;;;0.60;99.90;;;;;;4388312;28;659907;-72
2022/01/13 10:55:25;;;;;;;52.20;19.07;;;0.50;99.90;;;;;;4410171;28;660115;-78
2022/01/13 10:58:15;;;;;;;36.30;12.30;;;0.50;99.90;;;;;;4391813;28;659654;-78
2022/01/13 11:01:03;;;;;;;37.47;14.07;;;0.50;99.90;;;;;;4388027;28;660033;-77
2022/01/13 11:03:53;;;;;;;40.70;17.40;;;0.50;99.90;;;;;;4410880;28;660572;-77
2022/01/13 11:06:42;;;;;;;46.43;18.03;;;0.50;99.90;;;;;;4386970;28;659905;-75
2022/01/13 11:09:30;;;;;;;49.17;19.33;;;0.50;99.90;;;;;;4373854;28;661025;-77
2022/01/13 11:12:17;;;;;;;41.63;16.30;;;0.50;99.90;;;;;;4389916;28;659290;-78
2022/01/13 11:15:06;;;;;;;41.55;15.80;;;0.60;99.90;;;;;;4403932;28;660486;-77
2022/01/13 11:17:55;;;;;;;32.60;12.67;;;0.60;99.90;;;;;;4388716;28;661849;-76
2022/01/13 11:20:43;;;;;;;49.13;17.40;;;0.60;99.90;;;;;;4389821;28;660265;-77
2022/01/13 11:23:32;;;;;;;33.93;12.10;;;0.70;99.90;;;;;;4406223;28;660477;-73
2022/01/13 11:26:20;;;;;;;50.63;20.30;;;0.70;99.90;;;;;;4386717;28;660480;-78
2022/01/13 11:29:08;;;;;;;50.53;19.40;;;0.70;99.90;;;;;;4391751;28;659786;-78
2022/01/13 11:31:57;;;;;;;48.27;18.13;;;0.70;99.90;;;;;;4409280;28;659750;-79
2022/01/13 11:34:45;;;;;;;45.00;18.67;;;0.80;99.90;;;;;;4389396;28;661032;-76
2022/01/13 11:37:34;;;;;;;41.73;16.53;;;0.90;99.90;;;;;;4390014;28;659583;-73
2022/01/13 11:40:40;;;;;;;45.90;16.63;;;0.90;99.90;;;;;;4407136;28;659502;-78
2022/01/13 11:43:30;;;;;;;39.47;16.53;;;0.90;99.90;;;;;;4361333;28;660267;-73
2022/01/13 11:46:22;;;;;;;45.90;18.60;;;1.00;99.90;;;;;;4368642;28;659383;-73
2022/01/13 11:49:16;;;;;;;41.83;15.90;;;1.10;99.90;;;;;;4370511;28;659812;-76
2022/01/13 11:52:12;;;;;;;34.43;14.80;;;1.10;99.90;;;;;;4350562;28;660289;-76
2022/01/13 11:55:00;;;;;;;44.20;16.30;;;1.10;99.90;;;;;;4362679;28;660044;-77
2022/01/13 11:57:50;;;;;;;41.50;15.83;;;1.20;99.90;;;;;;4367401;28;659581;-77
2022/01/13 12:00:38;;;;;;;41.13;14.83;;;1.20;99.90;;;;;;4371419;28;659664;-77
2022/01/13 12:03:27;;;;;;;36.70;14.30;;;1.10;99.90;;;;;;4393050;28;660507;-75
2022/01/13 12:06:33;;;;;;;37.28;16.08;;;1.10;99.90;;;;;;4371190;28;660757;-78
2022/01/13 12:09:39;;;;;;;47.20;16.60;;;1.10;99.90;;;;;;4364431;28;659408;-78
2022/01/13 12:12:30;;;;;;;39.53;14.27;;;1.10;99.90;;;;;;4367291;28;660310;-78
2022/01/13 12:15:19;;;;;;;49.20;19.10;;;1.20;99.90;;;;;;4346925;28;659813;-75
2022/01/13 12:18:07;;;;;;;44.90;15.07;;;1.20;99.90;;;;;;4378222;28;659492;-74
2022/01/13 12:21:09;;;;;;;50.43;20.00;;;1.20;99.90;;;;;;4391998;28;660028;-75
2022/01/13 12:23:59;;;;;;;51.90;20.40;;;1.20;99.90;;;;;;4385576;28;659516;-77
2022/01/13 12:26:52;;;;;;;34.00;13.43;;;1.20;99.90;;;;;;4383965;28;660084;-76
2022/01/13 12:29:45;;;;;;;52.00;19.27;;;1.20;99.90;;;;;;4362430;28;660314;-76
2022/01/13 12:32:39;;;;;;;36.53;15.68;;;1.20;99.90;;;;;;4348109;28;659895;-76
2022/01/13 12:35:32;;;;;;;51.57;20.07;;;1.20;99.90;;;;;;4365839;28;659688;-77
2022/01/13 12:38:20;;;;;;;43.40;18.47;;;1.20;99.90;;;;;;4365287;28;660137;-74
2022/01/13 12:41:16;;;;;;;51.27;18.13;;;1.20;99.90;;;;;;4368255;28;659978;-76
2022/01/13 12:44:20;;;;;;;50.67;19.60;;;1.20;99.90;;;;;;4382289;28;659877;-73
2022/01/13 12:47:08;;;;;;;42.03;16.80;;;1.20;99.90;;;;;;4389654;28;660707;-71
2022/01/13 12:49:57;;;;;;;46.50;18.70;;;1.30;99.90;;;;;;4408783;28;660859;-76
2022/01/13 12:52:44;;;;;;;37.60;15.43;;;1.30;99.90;;;;;;4389433;28;660203;-77
2022/01/13 12:55:32;;;;;;;50.57;20.43;;;1.30;99.90;;;;;;4394620;28;661083;-78
2022/01/13 12:58:21;;;;;;;53.77;21.20;;;1.40;99.90;;;;;;4408962;28;660003;-75
2022/01/13 13:01:10;;;;;;;43.37;17.77;;;1.40;99.90;;;;;;4389179;28;659477;-79
2022/01/13 13:04:01;;;;;;;44.42;16.83;;;1.40;99.90;;;;;;4394658;28;659690;-78
2022/01/13 13:06:51;;;;;;;48.67;17.27;;;1.50;99.90;;;;;;4387644;28;660446;-69
2022/01/13 13:09:38;;;;;;;56.40;23.50;;;1.50;99.90;;;;;;4373218;28;659420;-69
2022/01/13 13:12:26;;;;;;;45.60;19.17;;;1.50;99.90;;;;;;4403234;28;660154;-79
2022/01/13 13:18:22;;;;;;;49.30;20.87;;;1.50;99.90;;;;;;4387078;28;658674;-75
2022/01/13 13:21:11;;;;;;;51.10;20.50;;;1.50;99.90;;;;;;4381795;28;661430;-76
2022/01/13 13:24:00;;;;;;;56.03;21.65;;;1.50;99.90;;;;;;4386777;28;660472;-77
2022/01/13 13:26:47;;;;;;;67.67;25.53;;;1.50;99.90;;;;;;4390490;28;660175;-75
2022/01/13 13:29:42;;;;;;;58.97;22.87;;;1.50;99.90;;;;;;4860346;28;1459854;-76
2022/01/13 13:32:29;;;;;;;45.87;17.43;;;1.50;99.90;;;;;;4390423;28;653138;-77
2022/01/13 13:35:18;;;;;;;61.17;23.03;;;1.50;99.90;;;;;;4414045;28;651310;-78
2022/01/13 13:38:05;;;;;;;63.13;22.73;;;1.50;99.90;;;;;;4406979;28;654054;-76
2022/01/13 13:40:53;;;;;;;58.90;23.27;;;1.50;99.90;;;;;;4393893;28;652913;-77
2022/01/13 13:43:41;;;;;;;44.60;18.57;;;1.50;99.90;;;;;;4403177;28;652134;-76
2022/01/13 13:46:30;;;;;;;62.00;23.43;;;1.50;99.90;;;;;;4394057;28;652621;-78
2022/01/13 13:49:17;;;;;;;62.20;25.20;;;1.50;99.90;;;;;;4394828;28;653598;-76
2022/01/13 13:52:06;;;;;;;48.53;21.13;;;1.40;99.90;;;;;;4413796;28;653521;-77
2022/01/13 13:54:53;;;;;;;57.40;22.57;;;1.40;99.90;;;;;;4391734;28;652955;-72
2022/01/13 13:57:42;;;;;;;62.60;27.17;;;1.50;99.90;;;;;;4406133;28;654052;-71
2022/01/13 14:00:30;;;;;;;57.67;23.47;;;1.50;99.90;;;;;;4385564;28;653850;-71
2022/01/13 14:03:23;;;;;;;51.73;21.00;;;1.50;99.90;;;;;;4389428;28;653543;-71
2022/01/13 14:06:10;;;;;;;61.97;25.27;;;1.50;99.90;;;;;;4386479;28;654650;-77
2022/01/13 14:08:58;;;;;;;63.43;26.37;;;1.40;99.90;;;;;;4392914;28;653448;-76
2022/01/13 14:11:46;;;;;;;63.70;25.27;;;1.40;99.90;;;;;;4397643;28;654216;-76
2022/01/13 14:14:37;;;;;;;65.20;25.03;;;1.40;99.90;;;;;;4374981;28;654992;-75
2022/01/13 14:17:31;;;;;;;54.37;20.73;;;1.40;99.90;;;;;;4370804;28;654852;-76
2022/01/13 14:20:21;;;;;;;48.43;18.63;;;1.40;99.90;;;;;;4351883;28;653174;-74